Time;durP1;ratioP1;P1;durP2;ratioP2;P2;SDS_P1;SDS_P2;PMS_P1;PMS_P2;Temp;Humidity;BMP_temperature;BMP_pressure;BME280_temperature;BME280_humidity;BME280_pressure;Samples;Min_cycle;Max_cycle;Signal;HPM_P1;HPM_P2
2023/06/28 04:02:38;;;;;;;0.60;0.20;;;21.40;1.00;;;;;;5092203;23;20848;-73
2023/06/28 04:05:06;;;;;;;0.63;0.20;;;21.30;1.00;;;;;;4956537;29;20550;-72
2023/06/28 04:07:34;;;;;;;0.60;0.20;;;21.40;1.00;;;;;;4956284;28;20449;-72
2023/06/28 04:10:03;;;;;;;0.60;0.20;;;21.40;1.00;;;;;;4956263;29;20495;-72
2023/06/28 04:12:31;;;;;;;0.60;0.10;;;21.30;1.00;;;;;;4956090;29;20929;-70
2023/06/28 04:15:00;;;;;;;0.60;0.10;;;21.30;1.00;;;;;;4957035;28;20489;-72
2023/06/28 04:17:29;;;;;;;0.60;0.20;;;21.30;1.00;;;;;;4956739;28;20459;-72
2023/06/28 04:19:58;;;;;;;0.60;0.10;;;21.30;1.00;;;;;;4956123;28;20996;-72
2023/06/28 04:22:26;;;;;;;0.60;0.10;;;21.20;1.00;;;;;;4956250;28;20463;-72
2023/06/28 04:24:54;;;;;;;0.60;0.13;;;21.20;1.00;;;;;;4956611;28;20482;-73
2023/06/28 04:27:22;;;;;;;0.60;0.20;;;21.20;1.00;;;;;;4956338;28;20452;-72
2023/06/28 04:29:49;;;;;;;0.60;0.20;;;21.20;1.00;;;;;;4956328;28;20452;-72
2023/06/28 04:32:22;;;;;;;0.60;0.10;;;21.10;1.00;;;;;;4958741;28;20491;-72
2023/06/28 04:34:52;;;;;;;0.60;0.20;;;21.10;1.00;;;;;;4955918;28;20445;-72
2023/06/28 04:37:22;;;;;;;0.60;0.13;;;21.10;1.00;;;;;;4948521;28;20469;-72
2023/06/28 04:39:50;;;;;;;0.60;0.10;;;21.10;1.00;;;;;;4968252;28;20537;-72
2023/06/28 04:42:18;;;;;;;0.60;0.10;;;21.10;1.00;;;;;;4956118;29;20567;-71
2023/06/28 04:44:47;;;;;;;0.60;0.10;;;21.10;1.00;;;;;;4956076;29;20447;-71
2023/06/28 04:47:16;;;;;;;0.60;0.20;;;21.00;1.00;;;;;;4956261;28;20460;-72
2023/06/28 04:49:47;;;;;;;0.60;0.10;;;21.10;1.00;;;;;;4941915;28;20487;-72
2023/06/28 04:52:15;;;;;;;0.60;0.20;;;21.00;1.00;;;;;;4936804;29;20516;-72
2023/06/28 04:54:44;;;;;;;0.60;0.10;;;21.00;1.00;;;;;;4936700;29;20491;-72
2023/06/28 04:57:12;;;;;;;0.70;0.20;;;21.00;1.00;;;;;;4943821;29;20992;-73
2023/06/28 04:59:41;;;;;;;0.60;0.20;;;20.90;1.00;;;;;;4955835;28;20472;-72
2023/06/28 05:02:09;;;;;;;0.60;0.20;;;20.90;1.00;;;;;;4954351;28;20487;-73
2023/06/28 05:04:39;;;;;;;0.60;0.10;;;20.90;1.00;;;;;;4965666;28;20462;-72
2023/06/28 05:07:09;;;;;;;0.60;0.10;;;21.00;1.00;;;;;;4954903;28;20470;-72
2023/06/28 05:09:38;;;;;;;0.60;0.10;;;21.00;1.00;;;;;;4953945;28;20459;-72
2023/06/28 05:12:08;;;;;;;0.60;0.10;;;20.90;1.00;;;;;;4964080;28;20479;-72
2023/06/28 05:14:35;;;;;;;0.60;0.20;;;20.90;1.00;;;;;;4955295;29;20452;-71
2023/06/28 05:17:04;;;;;;;0.60;0.10;;;20.80;1.00;;;;;;4952365;29;20460;-71
2023/06/28 05:19:32;;;;;;;0.60;0.20;;;;;;;;;;4935507;29;20527;-72
2023/06/28 05:21:59;;;;;;;0.60;0.20;;;20.90;1.00;;;;;;4936202;29;20503;-71
2023/06/28 05:24:27;;;;;;;0.60;0.10;;;20.80;1.00;;;;;;4936184;29;20499;-72
2023/06/28 05:26:55;;;;;;;0.60;0.10;;;20.70;1.00;;;;;;4939559;28;20566;-72
2023/06/28 05:29:25;;;;;;;0.60;0.10;;;20.70;1.00;;;;;;4959402;28;20905;-72
2023/06/28 05:31:53;;;;;;;0.60;0.20;;;20.70;1.00;;;;;;4955090;28;20504;-71
2023/06/28 05:34:21;;;;;;;0.60;0.10;;;20.70;1.00;;;;;;4951796;29;20629;-72
2023/06/28 05:36:49;;;;;;;0.60;0.10;;;;;;;;;;4954477;28;20985;-71
2023/06/28 05:39:17;;;;;;;0.60;0.10;;;20.70;1.00;;;;;;4951084;28;20470;-73
2023/06/28 05:41:46;;;;;;;0.60;0.20;;;20.70;1.00;;;;;;4964219;28;20503;-73
2023/06/28 05:44:16;;;;;;;0.60;0.10;;;;;;;;;;4958949;28;20444;-72
2023/06/28 05:46:46;;;;;;;0.60;0.13;;;20.70;1.00;;;;;;4958715;28;20492;-72
2023/06/28 05:49:13;;;;;;;0.60;0.10;;;20.70;1.00;;;;;;4974164;28;21122;-72
2023/06/28 05:51:41;;;;;;;0.60;0.10;;;20.70;1.00;;;;;;4973901;28;20471;-72
2023/06/28 05:54:09;;;;;;;0.60;0.10;;;20.70;1.00;;;;;;4974006;28;20918;-73
2023/06/28 05:56:38;;;;;;;0.60;0.20;;;;;;;;;;4951583;28;20491;-72
2023/06/28 05:59:06;;;;;;;0.60;0.10;;;20.70;1.00;;;;;;4954754;28;20552;-72
2023/06/28 06:01:34;;;;;;;0.60;0.20;;;20.70;1.00;;;;;;4950355;28;20504;-72
2023/06/28 06:04:03;;;;;;;0.60;0.20;;;;;;;;;;4954172;28;20510;-72
2023/06/28 06:06:31;;;;;;;0.60;0.20;;;20.60;1.00;;;;;;4954021;28;20833;-72
2023/06/28 06:09:00;;;;;;;0.60;0.20;;;;;;;;;;4954655;28;20452;-73
2023/06/28 06:11:28;;;;;;;0.60;0.10;;;;;;;;;;4953612;28;20475;-72
2023/06/28 06:13:57;;;;;;;0.60;0.20;;;20.50;1.00;;;;;;4954476;28;20471;-72
2023/06/28 06:16:25;;;;;;;0.60;0.20;;;20.50;1.00;;;;;;4955756;28;20555;-72
2023/06/28 06:18:53;;;;;;;0.60;0.20;;;20.50;1.00;;;;;;4951989;28;20480;-72
2023/06/28 06:21:22;;;;;;;0.60;0.20;;;20.50;1.00;;;;;;4956514;28;20487;-72
2023/06/28 06:23:51;;;;;;;0.60;0.20;;;;;;;;;;4965652;28;20434;-72
2023/06/28 06:26:19;;;;;;;0.60;0.10;;;20.50;1.00;;;;;;4964402;28;20458;-72
2023/06/28 06:28:47;;;;;;;0.60;0.20;;;20.60;1.00;;;;;;4954168;28;21158;-72
2023/06/28 06:31:15;;;;;;;0.60;0.20;;;;;;;;;;4955770;28;20558;-72
2023/06/28 06:33:44;;;;;;;0.60;0.20;;;;;;;;;;4946658;28;20566;-72
2023/06/28 06:36:12;;;;;;;0.60;0.20;;;20.80;1.00;;;;;;4939207;29;20480;-71
2023/06/28 06:38:42;;;;;;;0.60;0.20;;;20.70;1.00;;;;;;4951949;29;20451;-72
2023/06/28 06:41:10;;;;;;;0.60;0.10;;;20.80;1.00;;;;;;4958629;28;20881;-72
2023/06/28 06:43:39;;;;;;;0.60;0.10;;;;;;;;;;4956566;28;20473;-72
2023/06/28 06:46:07;;;;;;;0.60;0.20;;;20.70;1.00;;;;;;4958636;28;20550;-72
2023/06/28 06:48:36;;;;;;;0.60;0.20;;;;;;;;;;4973961;28;20443;-71
2023/06/28 06:51:05;;;;;;;0.60;0.10;;;17.60;1.00;;;;;;4981013;28;20512;-72
2023/06/28 06:53:33;;;;;;;0.60;0.10;;;20.80;1.00;;;;;;4969105;28;20484;-72
2023/06/28 06:56:02;;;;;;;0.60;0.10;;;20.90;1.00;;;;;;4967602;28;20511;-72
2023/06/28 06:58:30;;;;;;;0.60;0.20;;;20.80;1.00;;;;;;4959972;28;20448;-72
2023/06/28 07:00:58;;;;;;;0.60;0.10;;;20.90;1.00;;;;;;4958812;28;20559;-72
2023/06/28 07:03:27;;;;;;;0.60;0.20;;;20.90;1.00;;;;;;4965081;28;20893;-72
2023/06/28 07:05:55;;;;;;;0.60;0.20;;;;;;;;;;4969635;28;20482;-71
2023/06/28 07:08:24;;;;;;;0.60;0.20;;;;;;;;;;4966849;28;20455;-72
2023/06/28 07:10:52;;;;;;;1.50;1.27;;;20.90;1.00;;;;;;4958066;28;20470;-71
2023/06/28 07:13:22;;;;;;;0.60;0.20;;;20.90;1.00;;;;;;4977370;28;20492;-71
2023/06/28 07:15:50;;;;;;;0.60;0.10;;;21.00;1.00;;;;;;4977687;28;20972;-72
2023/06/28 07:18:18;;;;;;;0.60;0.20;;;20.80;1.00;;;;;;4977419;28;20461;-71
2023/06/28 07:20:46;;;;;;;0.80;0.20;;;21.10;1.00;;;;;;4965230;28;20543;-73
2023/06/28 07:23:14;;;;;;;0.60;0.17;;;21.00;1.00;;;;;;4957675;28;20450;-73
2023/06/28 07:25:42;;;;;;;0.70;0.30;;;21.10;1.00;;;;;;4957765;28;20451;-73
2023/06/28 07:28:11;;;;;;;0.60;0.20;;;21.10;1.00;;;;;;4957254;28;20512;-72
2023/06/28 07:30:54;;;;;;;0.83;0.20;;;21.10;1.00;;;;;;4957203;28;20463;-72
2023/06/28 07:33:23;;;;;;;0.60;0.10;;;21.20;1.00;;;;;;4943162;28;20975;-72
2023/06/28 07:35:51;;;;;;;0.60;0.10;;;21.20;1.00;;;;;;4938016;29;20455;-73
2023/06/28 07:38:20;;;;;;;0.60;0.10;;;21.20;1.00;;;;;;4938644;29;20467;-71
2023/06/28 07:40:49;;;;;;;0.70;0.30;;;21.20;1.00;;;;;;4958184;28;20487;-72
2023/06/28 07:43:19;;;;;;;0.63;0.20;;;21.30;1.00;;;;;;4970551;28;20811;-72
2023/06/28 07:45:47;;;;;;;0.60;0.13;;;21.40;1.00;;;;;;4958134;28;20448;-71
2023/06/28 07:48:17;;;;;;;0.60;0.20;;;21.40;1.00;;;;;;4952958;28;20465;-72
2023/06/28 07:50:45;;;;;;;0.87;0.20;;;21.50;1.00;;;;;;4964405;28;20551;-71
2023/06/28 07:53:14;;;;;;;0.60;0.20;;;21.40;1.00;;;;;;4965231;28;20486;-73
2023/06/28 07:55:42;;;;;;;0.60;0.17;;;21.40;1.00;;;;;;4954862;28;20511;-72
2023/06/28 07:58:10;;;;;;;0.60;0.20;;;;;;;;;;4961669;28;20531;-73
2023/06/28 08:00:38;;;;;;;0.90;0.20;;;21.40;1.00;;;;;;4976131;28;20463;-71
2023/06/28 08:03:09;;;;;;;0.60;0.20;;;;;;;;;;4959841;28;20943;-71
2023/06/28 08:05:39;;;;;;;0.60;0.20;;;21.50;1.00;;;;;;4948045;28;20458;-69
2023/06/28 08:08:07;;;;;;;0.60;0.10;;;21.60;1.00;;;;;;4976496;28;20538;-73
2023/06/28 08:10:35;;;;;;;0.70;0.20;;;21.70;1.00;;;;;;4971656;28;20444;-70
2023/06/28 08:13:03;;;;;;;0.60;0.10;;;21.80;1.00;;;;;;4951683;28;20469;-71
2023/06/28 08:15:34;;;;;;;0.70;0.10;;;;;;;;;;4948785;29;21056;-70
2023/06/28 08:18:02;;;;;;;0.60;0.20;;;22.10;1.00;;;;;;4956350;28;20503;-72
2023/06/28 08:20:31;;;;;;;0.70;0.10;;;22.20;1.00;;;;;;4956165;28;20449;-70
2023/06/28 08:23:00;;;;;;;0.70;0.10;;;22.40;1.00;;;;;;4956044;28;20818;-70
2023/06/28 08:25:28;;;;;;;0.70;0.20;;;;;;;;;;4956384;29;20458;-70
2023/06/28 08:27:57;;;;;;;0.70;0.10;;;22.60;1.00;;;;;;4940770;28;20459;-70
2023/06/28 08:30:24;;;;;;;0.70;0.10;;;22.60;1.00;;;;;;4936928;29;20549;-69
2023/06/28 08:32:52;;;;;;;0.70;0.10;;;22.70;1.00;;;;;;4956760;28;20484;-70
2023/06/28 08:35:20;;;;;;;0.70;0.10;;;22.70;1.00;;;;;;4955063;28;20495;-70
2023/06/28 08:37:49;;;;;;;0.70;0.20;;;22.70;1.00;;;;;;4952136;28;20517;-70
2023/06/28 08:40:18;;;;;;;0.60;0.10;;;22.60;1.00;;;;;;4954002;28;20516;-70
2023/06/28 08:42:48;;;;;;;0.70;0.10;;;22.50;1.00;;;;;;4962853;28;20560;-70
2023/06/28 08:45:17;;;;;;;0.70;0.20;;;22.50;1.00;;;;;;4955657;29;20440;-70
2023/06/28 08:47:45;;;;;;;0.70;0.20;;;;;;;;;;4955234;29;20541;-71
2023/06/28 08:50:14;;;;;;;0.70;0.10;;;22.50;1.00;;;;;;4955742;28;20477;-71
2023/06/28 08:52:43;;;;;;;0.70;0.10;;;22.60;1.00;;;;;;4954946;29;20563;-70
2023/06/28 08:55:11;;;;;;;0.60;0.10;;;22.60;1.00;;;;;;4950197;28;20571;-71
2023/06/28 08:57:44;;;;;;;0.70;0.20;;;22.60;1.00;;;;;;4950864;28;20458;-70
2023/06/28 09:00:13;;;;;;;0.70;0.13;;;22.70;1.00;;;;;;4956804;28;20794;-70
2023/06/28 09:02:42;;;;;;;0.70;0.13;;;22.80;1.00;;;;;;4938124;28;20485;-70
2023/06/28 09:05:11;;;;;;;0.70;0.20;;;22.90;1.00;;;;;;4935540;29;20819;-71
2023/06/28 09:07:41;;;;;;;0.70;0.20;;;23.00;1.00;;;;;;4936001;29;20571;-70
2023/06/28 09:10:10;;;;;;;0.70;0.10;;;23.00;1.00;;;;;;4946289;29;20457;-71
2023/06/28 09:12:39;;;;;;;0.70;0.10;;;23.00;1.00;;;;;;4954598;28;20572;-72
2023/06/28 09:15:09;;;;;;;0.70;0.10;;;22.90;1.00;;;;;;4955192;28;20575;-71
2023/06/28 09:17:37;;;;;;;2.13;0.40;;;23.00;1.00;;;;;;4956725;28;20449;-71
2023/06/28 09:20:16;;;;;;;0.70;0.10;;;22.90;1.00;;;;;;4955310;28;20454;-71
2023/06/28 09:22:54;;;;;;;0.90;0.57;;;22.80;1.00;;;;;;4948396;28;20478;-70
2023/06/28 09:25:23;;;;;;;0.70;0.10;;;;;;;;;;4962532;28;20435;-69
2023/06/28 09:27:51;;;;;;;1.67;0.40;;;;;;;;;;4957821;28;20444;-69
2023/06/28 09:30:20;;;;;;;0.70;0.20;;;22.30;1.00;;;;;;4956826;28;20558;-72
2023/06/28 09:32:51;;;;;;;0.63;0.20;;;22.10;1.00;;;;;;4957795;28;20467;-71
2023/06/28 09:35:19;;;;;;;0.60;0.10;;;;;;;;;;4972312;28;20475;-71
2023/06/28 09:37:50;;;;;;;0.70;0.30;;;22.10;1.00;;;;;;4957898;28;20452;-72
2023/06/28 09:40:18;;;;;;;0.60;0.20;;;21.90;1.00;;;;;;4971208;28;20444;-72
2023/06/28 09:42:48;;;;;;;0.67;0.20;;;21.80;1.00;;;;;;4963572;28;20468;-70
2023/06/28 09:45:26;;;;;;;1.70;1.60;;;;;;;;;;4968669;28;21021;-71
2023/06/28 09:47:57;;;;;;;0.60;0.10;;;22.00;1.00;;;;;;4973516;28;20455;-71
2023/06/28 09:50:37;;;;;;;0.60;0.20;;;22.10;1.00;;;;;;4973635;28;20864;-71
2023/06/28 09:53:09;;;;;;;0.70;0.10;;;22.10;1.00;;;;;;4966238;28;20494;-71
2023/06/28 09:55:39;;;;;;;0.60;0.10;;;22.20;1.00;;;;;;4945421;29;20481;-71
2023/06/28 09:58:09;;;;;;;0.70;0.20;;;22.20;1.00;;;;;;4938782;29;20485;-71
2023/06/28 10:00:39;;;;;;;0.70;0.20;;;22.30;1.00;;;;;;4951910;29;20461;-71
2023/06/28 10:03:08;;;;;;;0.80;0.43;;;22.40;1.00;;;;;;4950446;29;20448;-71
2023/06/28 10:05:38;;;;;;;0.70;0.10;;;22.40;1.00;;;;;;4954628;28;20444;-70
2023/06/28 10:08:09;;;;;;;0.70;0.20;;;22.50;1.00;;;;;;4954782;28;20483;-71
2023/06/28 10:10:39;;;;;;;0.60;0.10;;;22.50;1.00;;;;;;4954040;28;20451;-71
2023/06/28 10:13:10;;;;;;;0.70;0.30;;;22.50;1.00;;;;;;4948563;28;20479;-71
2023/06/28 10:15:48;;;;;;;0.70;0.10;;;22.50;1.00;;;;;;4954765;28;20582;-70
2023/06/28 10:18:17;;;;;;;0.60;0.10;;;;;;;;;;4954019;29;20467;-70
2023/06/28 10:20:47;;;;;;;0.90;0.20;;;22.50;1.00;;;;;;4969867;28;20946;-71
2023/06/28 10:23:17;;;;;;;0.70;0.20;;;22.30;1.00;;;;;;4951372;28;20449;-71
2023/06/28 10:25:45;;;;;;;0.70;0.20;;;22.40;1.00;;;;;;4951577;29;20479;-70
2023/06/28 10:28:14;;;;;;;0.70;0.10;;;22.50;1.00;;;;;;4953318;28;20449;-70
2023/06/28 10:30:44;;;;;;;0.90;0.20;;;22.60;1.00;;;;;;4953726;28;20487;-70
2023/06/28 10:33:12;;;;;;;1.10;0.30;;;;;;;;;;4953915;28;20482;-71
2023/06/28 10:35:43;;;;;;;0.60;0.13;;;19.40;1.00;;;;;;4946142;28;20481;-71
2023/06/28 10:38:11;;;;;;;0.70;0.20;;;22.40;1.00;;;;;;4935291;29;20485;-71
2023/06/28 10:40:40;;;;;;;0.70;0.10;;;22.60;1.00;;;;;;4967632;23;20487;-75
2023/06/28 10:43:22;;;;;;;0.97;0.87;;;22.90;1.00;;;;;;4975994;28;20492;-75
2023/06/28 10:45:52;;;;;;;0.70;0.20;;;22.90;1.00;;;;;;4956314;29;20462;-74
2023/06/28 10:48:21;;;;;;;0.70;0.10;;;23.10;1.00;;;;;;4954960;28;20462;-76
2023/06/28 10:50:50;;;;;;;0.70;0.20;;;23.30;1.00;;;;;;4956036;28;20534;-75
2023/06/28 10:53:22;;;;;;;0.70;0.20;;;23.30;1.00;;;;;;4967719;28;21059;-74
2023/06/28 10:56:08;;;;;;;0.80;0.40;;;23.30;1.00;;;;;;4976973;28;20495;-73
2023/06/28 10:58:40;;;;;;;0.70;0.17;;;23.40;1.00;;;;;;4978133;28;20456;-75
2023/06/28 11:01:11;;;;;;;0.70;0.23;;;23.50;1.00;;;;;;4975551;28;20476;-74
2023/06/28 11:03:41;;;;;;;0.70;0.20;;;23.60;1.00;;;;;;4974075;28;20444;-72
2023/06/28 11:06:09;;;;;;;4.70;3.03;;;23.60;1.00;;;;;;4978134;28;20902;-73
2023/06/28 11:08:40;;;;;;;0.70;0.20;;;23.40;1.00;;;;;;4967606;28;20516;-74
2023/06/28 11:11:10;;;;;;;0.70;0.20;;;23.50;1.00;;;;;;4975149;28;20488;-75
2023/06/28 11:13:48;;;;;;;1.83;0.87;;;23.50;1.00;;;;;;4974457;28;20464;-74
2023/06/28 11:16:21;;;;;;;0.70;0.20;;;23.40;1.00;;;;;;4976643;28;20512;-75
2023/06/28 11:18:50;;;;;;;0.70;0.20;;;23.40;1.00;;;;;;4978010;28;20463;-75
2023/06/28 11:21:22;;;;;;;0.70;0.20;;;23.40;1.00;;;;;;4977859;28;20476;-75
2023/06/28 11:23:53;;;;;;;0.70;0.20;;;23.40;1.00;;;;;;4978046;28;20449;-76
2023/06/28 11:26:33;;;;;;;0.70;0.10;;;23.40;1.00;;;;;;4979900;28;20483;-75
2023/06/28 11:29:02;;;;;;;0.70;0.10;;;23.50;1.00;;;;;;4979253;28;20496;-74
2023/06/28 11:31:40;;;;;;;0.70;0.20;;;23.80;1.00;;;;;;4978187;28;20873;-74
2023/06/28 11:34:09;;;;;;;0.70;0.20;;;24.00;1.00;;;;;;4976177;28;20445;-74
2023/06/28 11:36:38;;;;;;;0.70;0.20;;;24.10;1.00;;;;;;4978693;28;20485;-74
2023/06/28 11:39:09;;;;;;;0.70;0.10;;;24.20;1.00;;;;;;4980599;28;20468;-75
2023/06/28 11:41:37;;;;;;;1.33;0.80;;;24.20;1.00;;;;;;4984995;28;20487;-73
2023/06/28 11:44:07;;;;;;;0.70;0.17;;;24.10;1.00;;;;;;4975519;28;21032;-75
2023/06/28 11:46:36;;;;;;;0.90;0.50;;;23.90;1.00;;;;;;4957588;28;20446;-74
2023/06/28 11:49:05;;;;;;;0.80;0.40;;;23.90;1.00;;;;;;4957662;28;20466;-74
2023/06/28 11:51:33;;;;;;;0.70;0.27;;;23.80;1.00;;;;;;4960905;28;21533;-75
2023/06/28 11:54:02;;;;;;;0.70;0.20;;;23.70;1.00;;;;;;4976646;28;20472;-74
2023/06/28 11:56:34;;;;;;;2.67;0.70;;;23.60;1.00;;;;;;4975924;28;20552;-74
2023/06/28 11:59:16;;;;;;;0.70;0.23;;;23.50;1.00;;;;;;4976427;28;20469;-73
2023/06/28 12:01:45;;;;;;;0.70;0.30;;;23.40;1.00;;;;;;4974599;28;20523;-75
2023/06/28 12:04:15;;;;;;;0.90;0.53;;;23.50;1.00;;;;;;4974738;28;20802;-75
2023/06/28 12:06:49;;;;;;;0.70;0.20;;;23.50;1.00;;;;;;4969778;28;20865;-73
2023/06/28 12:09:18;;;;;;;0.70;0.20;;;23.70;1.00;;;;;;4972735;28;20548;-75
2023/06/28 12:11:54;;;;;;;1.00;0.77;;;24.00;1.00;;;;;;4974315;28;20468;-74
2023/06/28 12:14:22;;;;;;;0.70;0.20;;;23.90;1.00;;;;;;4975207;28;21037;-74
2023/06/28 12:16:51;;;;;;;0.70;0.20;;;23.80;1.00;;;;;;4974110;28;20552;-74
2023/06/28 12:19:21;;;;;;;0.70;0.10;;;23.90;1.00;;;;;;4974684;28;20484;-75
2023/06/28 12:21:49;;;;;;;0.70;0.13;;;24.10;1.00;;;;;;4974195;28;20500;-74
2023/06/28 12:24:21;;;;;;;0.83;0.40;;;24.20;1.00;;;;;;4976164;28;20481;-75
2023/06/28 12:26:49;;;;;;;0.70;0.10;;;24.20;1.00;;;;;;4969813;28;20460;-76
2023/06/28 12:29:19;;;;;;;0.70;0.20;;;24.30;1.00;;;;;;4976697;28;20832;-75
2023/06/28 12:31:48;;;;;;;0.70;0.10;;;24.50;1.00;;;;;;4976887;28;20472;-77
2023/06/28 12:34:23;;;;;;;0.70;0.20;;;24.70;1.00;;;;;;4968456;28;21119;-75
2023/06/28 12:36:53;;;;;;;0.70;0.10;;;24.70;1.00;;;;;;4970371;28;20501;-74
2023/06/28 12:39:22;;;;;;;0.70;0.20;;;24.70;1.00;;;;;;4978767;28;20884;-74
2023/06/28 12:42:05;;;;;;;0.70;0.10;;;24.60;1.00;;;;;;4979826;28;20475;-75
2023/06/28 12:44:49;;;;;;;0.70;0.20;;;24.60;1.00;;;;;;4979158;28;20495;-75
2023/06/28 12:47:18;;;;;;;0.70;0.20;;;24.40;1.00;;;;;;4983475;28;20481;-75
2023/06/28 12:49:48;;;;;;;0.70;0.20;;;24.50;1.00;;;;;;4989361;28;20991;-75
2023/06/28 12:52:16;;;;;;;0.80;0.30;;;24.70;1.00;;;;;;4980875;28;20474;-73
2023/06/28 12:54:45;;;;;;;0.70;0.17;;;24.90;1.00;;;;;;4984117;28;20909;-73
2023/06/28 12:57:13;;;;;;;0.70;0.17;;;25.10;1.00;;;;;;4984656;28;20531;-76
2023/06/28 12:59:42;;;;;;;0.70;0.23;;;25.00;1.00;;;;;;4986784;28;20459;-75
2023/06/28 13:02:10;;;;;;;0.80;0.40;;;24.90;1.00;;;;;;4971283;28;20493;-75
2023/06/28 13:04:39;;;;;;;0.70;0.10;;;24.90;1.00;;;;;;4972971;28;20453;-75
2023/06/28 13:07:09;;;;;;;0.90;0.40;;;24.90;1.00;;;;;;4974738;28;20468;-76
2023/06/28 13:09:38;;;;;;;0.70;0.20;;;24.90;1.00;;;;;;4986555;28;20456;-77
2023/06/28 13:12:07;;;;;;;0.70;0.10;;;24.80;1.00;;;;;;4978305;28;20458;-74
2023/06/28 13:14:35;;;;;;;0.70;0.20;;;24.80;1.00;;;;;;4961089;28;20457;-76
2023/06/28 13:17:05;;;;;;;0.70;0.17;;;24.80;1.00;;;;;;4955891;28;20581;-73
2023/06/28 13:19:33;;;;;;;0.70;0.20;;;24.80;1.00;;;;;;4956141;28;20443;-75
2023/06/28 13:22:01;;;;;;;0.70;0.17;;;24.70;1.00;;;;;;4955888;28;20526;-76
2023/06/28 13:24:30;;;;;;;0.70;0.10;;;24.70;1.00;;;;;;4955124;28;20528;-75
2023/06/28 13:26:58;;;;;;;0.70;0.20;;;24.70;1.00;;;;;;4970962;28;20889;-75
2023/06/28 13:29:27;;;;;;;0.70;0.10;;;24.80;1.00;;;;;;4978339;28;20928;-73
2023/06/28 13:31:55;;;;;;;0.90;0.40;;;24.90;1.00;;;;;;4982948;28;20469;-73
2023/06/28 13:34:23;;;;;;;0.70;0.20;;;24.90;1.00;;;;;;4983456;28;20456;-72
2023/06/28 13:36:51;;;;;;;0.70;0.10;;;24.90;1.00;;;;;;4981657;28;20477;-72
2023/06/28 13:39:19;;;;;;;0.70;0.20;;;25.10;1.00;;;;;;4984634;28;20496;-74
2023/06/28 13:41:48;;;;;;;0.70;0.20;;;24.90;1.00;;;;;;4984152;28;20833;-73
2023/06/28 13:44:16;;;;;;;0.70;0.17;;;24.90;1.00;;;;;;4990149;28;20475;-72
2023/06/28 13:46:44;;;;;;;0.70;0.10;;;24.90;1.00;;;;;;4995867;28;20556;-73
2023/06/28 13:49:12;;;;;;;0.70;0.10;;;24.80;1.00;;;;;;4987067;28;20462;-75
2023/06/28 13:51:40;;;;;;;0.80;0.50;;;24.90;1.00;;;;;;4983221;28;20469;-72
2023/06/28 13:54:08;;;;;;;0.70;0.20;;;24.70;1.00;;;;;;4981494;28;20454;-72
2023/06/28 13:56:36;;;;;;;0.70;0.10;;;24.60;1.00;;;;;;4978552;28;20446;-72
2023/06/28 13:59:05;;;;;;;0.70;0.10;;;24.70;1.00;;;;;;4963280;28;20464;-71
2023/06/28 14:01:34;;;;;;;0.70;0.10;;;;;;;;;;4965013;28;20552;-71
2023/06/28 14:04:03;;;;;;;0.70;0.20;;;24.70;1.00;;;;;;4975116;28;20507;-73
2023/06/28 14:06:31;;;;;;;0.70;0.10;;;24.70;1.00;;;;;;4971963;28;20472;-72
2023/06/28 14:08:59;;;;;;;0.70;0.30;;;24.80;1.00;;;;;;4974506;28;20484;-73
2023/06/28 14:11:27;;;;;;;0.70;0.20;;;24.80;1.00;;;;;;4975627;28;20476;-72
2023/06/28 14:13:55;;;;;;;0.70;0.20;;;24.80;1.00;;;;;;4974539;28;20462;-73
2023/06/28 14:16:25;;;;;;;0.70;0.20;;;24.90;1.00;;;;;;4974484;28;20960;-74
2023/06/28 14:18:53;;;;;;;0.70;0.13;;;25.10;1.00;;;;;;4973014;28;20482;-73
2023/06/28 14:21:20;;;;;;;0.70;0.20;;;25.20;1.00;;;;;;4973681;28;20474;-73
2023/06/28 14:23:48;;;;;;;0.70;0.20;;;25.20;1.00;;;;;;4972382;28;20453;-72
2023/06/28 14:26:16;;;;;;;0.70;0.20;;;25.30;1.00;;;;;;4968944;28;20481;-73
2023/06/28 14:28:44;;;;;;;0.70;0.10;;;25.20;1.00;;;;;;4966805;28;20481;-73
2023/06/28 14:31:14;;;;;;;0.70;0.20;;;25.40;1.00;;;;;;4966934;28;20556;-73
2023/06/28 14:33:48;;;;;;;0.70;0.10;;;25.50;1.00;;;;;;4979453;28;20446;-74
2023/06/28 14:36:15;;;;;;;0.70;0.17;;;25.70;1.00;;;;;;4975127;28;20948;-73
2023/06/28 14:38:43;;;;;;;0.70;0.20;;;25.70;1.00;;;;;;4975892;28;20481;-73
2023/06/28 14:41:11;;;;;;;0.70;0.10;;;25.80;1.00;;;;;;4972955;28;21007;-72
2023/06/28 14:43:39;;;;;;;0.70;0.10;;;25.70;1.00;;;;;;4972298;28;20474;-73
2023/06/28 14:46:09;;;;;;;0.70;0.10;;;25.70;1.00;;;;;;4970068;28;20549;-72
2023/06/28 14:48:37;;;;;;;0.70;0.10;;;25.70;1.00;;;;;;4967392;28;20535;-72
2023/06/28 14:51:06;;;;;;;0.70;0.10;;;25.60;1.00;;;;;;4973587;28;20461;-73
2023/06/28 14:53:37;;;;;;;0.70;0.20;;;25.50;1.00;;;;;;4958148;28;20493;-72
2023/06/28 14:56:05;;;;;;;0.70;0.10;;;25.50;1.00;;;;;;4962804;28;20453;-72
2023/06/28 14:58:33;;;;;;;0.70;0.10;;;25.50;1.00;;;;;;4959933;28;20508;-72
2023/06/28 15:01:01;;;;;;;0.70;0.20;;;25.40;1.00;;;;;;4959374;28;20470;-73
2023/06/28 15:03:29;;;;;;;0.70;0.10;;;;;;;;;;4975460;28;20453;-73
2023/06/28 15:05:57;;;;;;;0.70;0.20;;;25.40;1.00;;;;;;4980018;28;20553;-71
2023/06/28 15:08:27;;;;;;;0.70;0.10;;;25.40;1.00;;;;;;4978656;28;20443;-72
2023/06/28 15:10:55;;;;;;;0.70;0.20;;;25.80;1.00;;;;;;4979903;28;20465;-72
2023/06/28 15:13:23;;;;;;;0.70;0.10;;;25.80;1.00;;;;;;4978443;28;20449;-73
2023/06/28 15:15:51;;;;;;;0.90;0.60;;;25.80;1.00;;;;;;4980245;28;20485;-72
2023/06/28 15:18:19;;;;;;;0.70;0.10;;;25.90;1.00;;;;;;4977493;28;20511;-71
2023/06/28 15:20:47;;;;;;;0.70;0.10;;;25.90;1.00;;;;;;4978245;28;20504;-72
2023/06/28 15:23:16;;;;;;;0.70;0.20;;;25.90;1.00;;;;;;4976220;28;20450;-73
2023/06/28 15:25:47;;;;;;;0.70;0.20;;;26.00;1.00;;;;;;4978776;28;20445;-71
2023/06/28 15:28:15;;;;;;;0.70;0.17;;;26.10;1.00;;;;;;4979592;28;20441;-72
2023/06/28 15:30:43;;;;;;;0.70;0.10;;;26.40;1.00;;;;;;4976508;28;20556;-72
2023/06/28 15:33:13;;;;;;;0.70;0.10;;;26.50;1.00;;;;;;4961574;28;20482;-72
2023/06/28 15:35:41;;;;;;;0.70;0.20;;;26.70;1.00;;;;;;4961225;28;20457;-72
2023/06/28 15:38:10;;;;;;;0.70;0.20;;;26.80;1.00;;;;;;4960760;28;20873;-71
2023/06/28 15:40:38;;;;;;;0.70;0.20;;;26.80;1.00;;;;;;4965617;28;20565;-72
2023/06/28 15:43:07;;;;;;;0.70;0.30;;;26.80;1.00;;;;;;4985086;28;20445;-72
2023/06/28 15:45:36;;;;;;;0.80;0.37;;;26.70;1.00;;;;;;4993256;28;20442;-72
2023/06/28 15:48:05;;;;;;;0.70;0.10;;;26.70;1.00;;;;;;4988272;28;20449;-72
2023/06/28 15:50:34;;;;;;;0.97;0.50;;;26.40;1.00;;;;;;4982703;28;20473;-71
2023/06/28 15:53:02;;;;;;;0.70;0.10;;;26.40;1.00;;;;;;4977047;28;20510;-70
2023/06/28 15:55:31;;;;;;;0.70;0.10;;;26.30;1.00;;;;;;4973683;28;20716;-73
2023/06/28 15:57:59;;;;;;;0.70;0.10;;;;;;;;;;4975856;28;20464;-71
2023/06/28 16:00:28;;;;;;;1.57;0.60;;;26.00;1.00;;;;;;4980395;28;21279;-72
2023/06/28 16:02:56;;;;;;;0.70;0.10;;;25.90;1.00;;;;;;4988180;28;20471;-74
2023/06/28 16:05:24;;;;;;;0.80;0.20;;;25.90;1.00;;;;;;4983345;28;20481;-73
2023/06/28 16:07:53;;;;;;;0.70;0.20;;;25.90;1.00;;;;;;4993382;28;20449;-72
2023/06/28 16:10:22;;;;;;;0.70;0.20;;;26.00;1.00;;;;;;4971001;28;20482;-72
2023/06/28 16:12:51;;;;;;;0.70;0.10;;;26.00;1.00;;;;;;4978712;28;20505;-73
2023/06/28 16:15:19;;;;;;;0.70;0.20;;;26.00;1.00;;;;;;4984422;28;20536;-72
2023/06/28 16:17:49;;;;;;;0.70;0.10;;;26.00;1.00;;;;;;4995883;28;20449;-74
2023/06/28 16:20:18;;;;;;;0.80;0.20;;;26.10;1.00;;;;;;4988118;28;20480;-73
2023/06/28 16:22:46;;;;;;;0.70;0.10;;;26.20;1.00;;;;;;4993975;28;20457;-74
2023/06/28 16:25:17;;;;;;;0.70;0.20;;;;;;;;;;4996491;28;20446;-72
2023/06/28 16:27:46;;;;;;;0.70;0.10;;;26.70;1.00;;;;;;4996726;28;20479;-73
2023/06/28 16:30:14;;;;;;;0.70;0.20;;;26.60;1.00;;;;;;4996099;28;20963;-74
2023/06/28 16:32:43;;;;;;;0.70;0.20;;;;;;;;;;4969947;28;20501;-73
2023/06/28 16:35:13;;;;;;;0.70;0.13;;;26.50;1.00;;;;;;5032932;28;21043;-72
2023/06/28 16:37:41;;;;;;;0.90;0.63;;;26.50;1.00;;;;;;5034129;28;20949;-72
2023/06/28 16:40:10;;;;;;;0.93;0.20;;;26.40;1.00;;;;;;5016488;28;20526;-72
2023/06/28 16:42:38;;;;;;;0.70;0.17;;;;;;;;;;5034859;23;20538;-72
2023/06/28 16:45:07;;;;;;;0.70;0.10;;;26.20;1.00;;;;;;5018922;28;20449;-72
2023/06/28 16:47:35;;;;;;;0.70;0.20;;;26.10;1.00;;;;;;5015709;28;20482;-72
2023/06/28 16:50:04;;;;;;;0.70;0.20;;;26.00;1.00;;;;;;5031248;28;20439;-73
2023/06/28 16:52:33;;;;;;;0.70;0.20;;;26.00;1.00;;;;;;5021243;28;20492;-72
2023/06/28 16:55:01;;;;;;;0.70;0.10;;;26.00;1.00;;;;;;5013709;28;20945;-72
2023/06/28 16:57:29;;;;;;;0.70;0.10;;;26.00;1.00;;;;;;5008849;28;20448;-73
2023/06/28 16:59:57;;;;;;;0.70;0.10;;;;;;;;;;4991171;28;20480;-72
2023/06/28 17:02:25;;;;;;;0.70;0.13;;;25.70;1.00;;;;;;4994176;28;20512;-72
2023/06/28 17:04:53;;;;;;;0.70;0.30;;;25.60;1.00;;;;;;4978050;28;20456;-72
2023/06/28 17:07:21;;;;;;;3.77;3.60;;;;;;;;;;4992378;28;20966;-71
2023/06/28 17:09:52;;;;;;;0.70;0.10;;;25.50;1.00;;;;;;4991911;28;20963;-71
2023/06/28 17:12:21;;;;;;;0.70;0.20;;;25.50;1.00;;;;;;4999189;28;20483;-71
2023/06/28 17:14:49;;;;;;;0.70;0.10;;;25.40;1.00;;;;;;5011746;28;20447;-71
2023/06/28 17:17:18;;;;;;;0.70;0.10;;;25.40;1.00;;;;;;5007837;28;20955;-72
2023/06/28 17:19:46;;;;;;;0.70;0.20;;;25.50;1.00;;;;;;4990556;28;20472;-73